Wetterstation Vordersexau
Wetterdaten: Woche 18.09.17 - 24.09.17 (KW38)
Datum Zeit Temp. A. Feuchte A. Luftdruck Regen Wind Richtung Taupunkt Windchill Windben
18.09.2017 00:00 8,9 C 83 % 1013,3 hPa 0,5 l/m 0,0 km/h O-SO 6,2 C 8,9 C 0,0 km/h
18.09.2017 01:00 9,2 C 83 % 1013,2 hPa 0,0 l/m 0,0 km/h O-SO 6,5 C 9,2 C 0,0 km/h
18.09.2017 02:00 9,2 C 82 % 1013,2 hPa 0,0 l/m 0,0 km/h O-SO 6,3 C 9,2 C 0,0 km/h
18.09.2017 03:00 9,3 C 81 % 1013,5 hPa 0,0 l/m 0,0 km/h O-SO 6,2 C 9,3 C 0,0 km/h
18.09.2017 04:00 9,2 C 81 % 1013,8 hPa 0,0 l/m 0,0 km/h O-SO 6,1 C 9,2 C 0,0 km/h
18.09.2017 05:00 9,2 C 81 % 1013,7 hPa 0,0 l/m 0,0 km/h N 6,1 C 9,2 C 0,0 km/h
18.09.2017 06:00 9,2 C 81 % 1014,1 hPa 0,0 l/m 0,0 km/h S 6,1 C 9,2 C 0,0 km/h
18.09.2017 07:00 9,3 C 80 % 1014,7 hPa 0,0 l/m 0,0 km/h S-SO 6,0 C 9,3 C 0,0 km/h
18.09.2017 08:00 9,9 C 80 % 1015,1 hPa 0,0 l/m 0,0 km/h S 6,6 C 9,9 C 0,0 km/h
18.09.2017 09:00 11,6 C 82 % 1015,6 hPa 0,0 l/m 0,0 km/h SW 8,6 C 11,6 C 0,0 km/h
18.09.2017 10:00 14,9 C 77 % 1015,4 hPa 0,0 l/m 0,0 km/h W-SW 10,9 C 14,9 C 0,0 km/h
18.09.2017 11:00 16,5 C 62 % 1015,1 hPa 0,0 l/m 2,6 km/h W 9,2 C 16,5 C 1,4 km/h
18.09.2017 12:00 15,2 C 65 % 1015,1 hPa 0,0 l/m 0,0 km/h W 8,7 C 15,2 C 0,0 km/h
18.09.2017 13:00 14,9 C 68 % 1015,0 hPa 0,0 l/m 0,0 km/h W 9,0 C 14,9 C 0,0 km/h
18.09.2017 14:00 16,1 C 63 % 1014,8 hPa 0,0 l/m 0,0 km/h W-SW 9,1 C 16,1 C 0,0 km/h
18.09.2017 15:00 16,6 C 59 % 1014,4 hPa 0,0 l/m 0,0 km/h W-SW 8,6 C 16,6 C 0,0 km/h
18.09.2017 16:00 15,9 C 62 % 1014,3 hPa 0,0 l/m 0,0 km/h W 8,6 C 15,9 C 0,0 km/h
18.09.2017 17:00 14,6 C 65 % 1014,0 hPa 0,0 l/m 0,0 km/h W 8,1 C 14,6 C 0,0 km/h
18.09.2017 18:00 14,3 C 71 % 1014,4 hPa 0,0 l/m 0,0 km/h NW 9,1 C 14,3 C 0,0 km/h
18.09.2017 19:00 11,6 C 78 % 1014,9 hPa 0,0 l/m 0,0 km/h NW 7,9 C 11,6 C 0,0 km/h
18.09.2017 20:00 9,6 C 81 % 1015,5 hPa 0,0 l/m 0,0 km/h NO 6,5 C 9,6 C 0,0 km/h
18.09.2017 21:00 9,1 C 83 % 1015,7 hPa 0,0 l/m 0,0 km/h O-SO 6,4 C 9,1 C 0,0 km/h
18.09.2017 22:00 9,1 C 84 % 1016,0 hPa 0,0 l/m 0,0 km/h O-SO 6,5 C 9,1 C 0,0 km/h
18.09.2017 23:00 9,3 C 83 % 1016,0 hPa 0,0 l/m 0,0 km/h O-SO 6,6 C 9,3 C 0,0 km/h
19.09.2017 00:00 9,3 C 83 % 1015,7 hPa 0,0 l/m 0,0 km/h O-SO 6,6 C 9,3 C 0,0 km/h
19.09.2017 01:00 9,2 C 83 % 1015,8 hPa 0,0 l/m 0,0 km/h O-SO 6,5 C 9,2 C 0,0 km/h
19.09.2017 02:00 9,0 C 83 % 1015,7 hPa 0,0 l/m 0,0 km/h O-SO 6,3 C 9,0 C 0,0 km/h
19.09.2017 03:00 9,2 C 82 % 1015,4 hPa 0,0 l/m 0,0 km/h O-SO 6,3 C 9,2 C 0,0 km/h
19.09.2017 04:00 9,0 C 82 % 1014,9 hPa 0,0 l/m 0,0 km/h O-SO 6,1 C 9,0 C 0,0 km/h
19.09.2017 05:00 8,6 C 82 % 1015,0 hPa 0,0 l/m 0,0 km/h O-NO 5,7 C 8,6 C 0,0 km/h
19.09.2017 06:00 8,8 C 81 % 1015,4 hPa 0,0 l/m 0,0 km/h O-NO 5,7 C 8,8 C 0,0 km/h
19.09.2017 07:00 9,0 C 80 % 1015,7 hPa 0,0 l/m 0,0 km/h O-SO 5,7 C 9,0 C 0,0 km/h
19.09.2017 08:00 10,0 C 79 % 1015,9 hPa 0,0 l/m 0,0 km/h W 6,5 C 10,0 C 0,0 km/h
19.09.2017 09:00 11,2 C 83 % 1016,1 hPa 0,0 l/m 0,0 km/h NW 8,4 C 11,2 C 0,0 km/h
19.09.2017 10:00 11,9 C 84 % 1016,4 hPa 0,0 l/m 0,0 km/h SO 9,3 C 11,9 C 0,0 km/h
19.09.2017 11:00 13,5 C 83 % 1016,2 hPa 0,5 l/m 0,0 km/h S 10,7 C 13,5 C 0,0 km/h
19.09.2017 12:00 15,8 C 76 % 1016,3 hPa 0,0 l/m 0,0 km/h O-SO 11,6 C 15,8 C 0,0 km/h
19.09.2017 13:00 18,2 C 66 % 1015,9 hPa 0,0 l/m 0,0 km/h N 11,7 C 18,2 C 0,0 km/h
19.09.2017 14:00 15,8 C 66 % 1016,3 hPa 0,0 l/m 4,5 km/h S-SO 9,5 C 15,8 C 2,5 km/h
19.09.2017 15:00 20,2 C 67 % 1016,2 hPa 0,5 l/m 0,0 km/h W-SW 13,9 C 20,2 C 0,0 km/h
19.09.2017 16:00 20,6 C 56 % 1016,1 hPa 0,0 l/m 0,0 km/h W 11,5 C 20,6 C 0,0 km/h
19.09.2017 17:00 13,5 C 77 % 1016,6 hPa 0,5 l/m 0,0 km/h S-SO 9,5 C 13,5 C 0,0 km/h
19.09.2017 18:00 13,6 C 76 % 1017,0 hPa 0,0 l/m 0,0 km/h W 9,4 C 13,6 C 0,0 km/h
19.09.2017 19:00 11,3 C 83 % 1017,9 hPa 0,5 l/m 0,0 km/h SO 8,5 C 11,3 C 0,0 km/h
19.09.2017 20:00 10,2 C 83 % 1018,6 hPa 2,1 l/m 0,0 km/h SO 7,4 C 10,2 C 0,0 km/h
19.09.2017 21:00 10,4 C 83 % 1018,8 hPa 0,0 l/m 0,0 km/h SO 7,6 C 10,4 C 0,0 km/h
19.09.2017 22:00 9,8 C 83 % 1019,2 hPa 0,5 l/m 0,0 km/h SO 7,1 C 9,8 C 0,0 km/h
19.09.2017 23:00 10,0 C 82 % 1019,2 hPa 0,0 l/m 0,0 km/h SO 7,1 C 10,0 C 0,0 km/h
20.09.2017 00:00 10,1 C 81 % 1019,4 hPa 0,0 l/m 0,0 km/h SO 7,0 C 10,1 C 0,0 km/h
20.09.2017 01:00 10,2 C 80 % 1019,3 hPa 1,0 l/m 0,0 km/h SO 6,9 C 10,2 C 0,0 km/h
20.09.2017 02:00 9,3 C 79 % 1019,3 hPa 0,0 l/m 0,0 km/h SO 5,8 C 9,3 C 0,0 km/h
20.09.2017 03:00 9,3 C 80 % 1019,4 hPa 0,0 l/m 0,0 km/h SO 6,0 C 9,3 C 0,0 km/h
20.09.2017 04:00 8,9 C 79 % 1019,7 hPa 0,0 l/m 0,0 km/h SO 5,5 C 8,9 C 0,0 km/h
20.09.2017 05:00 7,8 C 78 % 1019,8 hPa 0,0 l/m 0,0 km/h SO 4,2 C 7,8 C 0,0 km/h
20.09.2017 06:00 7,5 C 79 % 1020,0 hPa 0,0 l/m 0,0 km/h SO 4,1 C 7,5 C 0,0 km/h
20.09.2017 07:00 6,3 C 78 % 1020,3 hPa 0,0 l/m 0,0 km/h SO 2,8 C 6,3 C 0,0 km/h
20.09.2017 08:00 9,5 C 69 % 1020,4 hPa 0,0 l/m 0,0 km/h N-NO 4,1 C 9,5 C 0,0 km/h
20.09.2017 09:00 13,8 C 76 % 1021,0 hPa 0,0 l/m 0,0 km/h W-NW 9,6 C 13,8 C 0,0 km/h
20.09.2017 10:00 18,3 C 74 % 1020,9 hPa 0,0 l/m 0,0 km/h O-SO 13,6 C 18,3 C 0,0 km/h
20.09.2017 11:00 19,0 C 66 % 1020,6 hPa 0,0 l/m 0,0 km/h NW 12,5 C 19,0 C 0,0 km/h
20.09.2017 12:00 20,9 C 54 % 1020,4 hPa 0,0 l/m 0,0 km/h W 11,2 C 20,9 C 0,0 km/h
20.09.2017 13:00 20,2 C 52 % 1020,1 hPa 0,0 l/m 2,6 km/h SW 10,0 C 20,2 C 1,4 km/h
20.09.2017 14:00 23,9 C 44 % 1019,5 hPa 0,0 l/m 0,0 km/h N-NO 10,9 C 23,9 C 0,0 km/h
20.09.2017 15:00 17,3 C 56 % 1019,4 hPa 0,0 l/m 12,3 km/h N 8,4 C 14,8 C 6,8 km/h
20.09.2017 16:00 16,7 C 62 % 1019,3 hPa 0,0 l/m 17,5 km/h N 9,4 C 12,6 C 9,7 km/h
20.09.2017 17:00 22,5 C 48 % 1019,0 hPa 0,0 l/m 0,0 km/h N 10,9 C 22,5 C 0,0 km/h
20.09.2017 18:00 17,9 C 59 % 1019,2 hPa 0,0 l/m 0,0 km/h O-SO 9,8 C 17,9 C 0,0 km/h
20.09.2017 19:00 11,4 C 73 % 1019,7 hPa 0,0 l/m 0,0 km/h O-SO 6,7 C 11,4 C 0,0 km/h
20.09.2017 20:00 8,6 C 78 % 1019,8 hPa 0,0 l/m 0,0 km/h O 5,0 C 8,6 C 0,0 km/h
20.09.2017 21:00 8,3 C 82 % 1019,8 hPa 0,0 l/m 0,0 km/h O-SO 5,4 C 8,3 C 0,0 km/h
20.09.2017 22:00 7,6 C 83 % 1019,8 hPa 0,0 l/m 0,0 km/h SO 4,9 C 7,6 C 0,0 km/h
20.09.2017 23:00 7,5 C 83 % 1019,9 hPa 0,0 l/m 0,0 km/h SO 4,8 C 7,5 C 0,0 km/h
21.09.2017 00:00 7,1 C 83 % 1019,5 hPa 0,0 l/m 0,0 km/h SO 4,4 C 7,1 C 0,0 km/h
21.09.2017 01:00 6,6 C 82 % 1019,7 hPa 0,0 l/m 0,0 km/h O-SO 3,8 C 6,6 C 0,0 km/h
21.09.2017 02:00 5,8 C 82 % 1019,6 hPa 0,0 l/m 0,0 km/h O 3,0 C 5,8 C 0,0 km/h
21.09.2017 03:00 5,0 C 82 % 1019,5 hPa 0,0 l/m 0,0 km/h N 2,2 C 5,0 C 0,0 km/h
21.09.2017 04:00 4,7 C 82 % 1019,3 hPa 0,0 l/m 0,0 km/h N 1,9 C 4,7 C 0,0 km/h
21.09.2017 05:00 3,9 C 82 % 1018,8 hPa 0,0 l/m 0,0 km/h N 1,1 C 3,9 C 0,0 km/h
21.09.2017 06:00 4,3 C 81 % 1018,9 hPa 0,0 l/m 0,0 km/h N 1,3 C 4,3 C 0,0 km/h
21.09.2017 07:00 3,8 C 81 % 1019,2 hPa 0,0 l/m 0,0 km/h O-SO 0,8 C 3,8 C 0,0 km/h
21.09.2017 08:00 7,8 C 68 % 1019,2 hPa 0,0 l/m 0,0 km/h O-SO 2,3 C 7,8 C 0,0 km/h
21.09.2017 09:00 14,7 C 82 % 1019,3 hPa 0,0 l/m 0,0 km/h N 11,7 C 14,7 C 0,0 km/h
21.09.2017 10:00 17,0 C 66 % 1019,0 hPa 0,0 l/m 0,0 km/h W 10,6 C 17,0 C 0,0 km/h
21.09.2017 11:00 18,4 C 62 % 1018,7 hPa 0,0 l/m 0,0 km/h N-NW 11,0 C 18,4 C 0,0 km/h
21.09.2017 12:00 21,0 C 59 % 1018,1 hPa 0,0 l/m 0,0 km/h W 12,7 C 21,0 C 0,0 km/h
21.09.2017 13:00 20,8 C 59 % 1017,7 hPa 0,0 l/m 0,0 km/h W-NW 12,5 C 20,8 C 0,0 km/h
21.09.2017 14:00 22,9 C 54 % 1017,0 hPa 0,0 l/m 0,0 km/h SW 13,1 C 22,9 C 0,0 km/h
21.09.2017 15:00 24,8 C 49 % 1016,4 hPa 0,0 l/m 5,8 km/h W-SW 13,3 C 24,8 C 3,2 km/h
21.09.2017 16:00 26,6 C 46 % 1016,0 hPa 0,0 l/m 0,0 km/h W 14,0 C 26,6 C 0,0 km/h
21.09.2017 17:00 23,9 C 48 % 1015,9 hPa 0,0 l/m 0,0 km/h W 12,2 C 23,9 C 0,0 km/h
21.09.2017 18:00 18,9 C 60 % 1016,2 hPa 0,0 l/m 0,0 km/h W 11,0 C 18,9 C 0,0 km/h
21.09.2017 19:00 13,3 C 73 % 1016,7 hPa 0,0 l/m 0,0 km/h W 8,6 C 13,3 C 0,0 km/h
21.09.2017 20:00 11,2 C 80 % 1017,0 hPa 0,0 l/m 0,0 km/h S 7,9 C 11,2 C 0,0 km/h
21.09.2017 21:00 10,1 C 82 % 1017,1 hPa 0,0 l/m 0,0 km/h SO 7,2 C 10,1 C 0,0 km/h
21.09.2017 22:00 9,6 C 83 % 1017,4 hPa 0,0 l/m 0,0 km/h N-NO 6,9 C 9,6 C 0,0 km/h
21.09.2017 23:00 9,1 C 83 % 1017,4 hPa 0,0 l/m 0,0 km/h O-SO 6,4 C 9,1 C 0,0 km/h
22.09.2017 00:00 8,6 C 83 % 1017,3 hPa 0,0 l/m 0,0 km/h O-SO 5,9 C 8,6 C 0,0 km/h
22.09.2017 01:00 8,1 C 83 % 1017,6 hPa 0,0 l/m 0,0 km/h O-SO 5,4 C 8,1 C 0,0 km/h
22.09.2017 02:00 7,6 C 83 % 1017,5 hPa 0,0 l/m 0,0 km/h O-SO 4,9 C 7,6 C 0,0 km/h
22.09.2017 03:00 7,0 C 82 % 1017,4 hPa 0,0 l/m 0,0 km/h O-SO 4,1 C 7,0 C 0,0 km/h
22.09.2017 04:00 6,3 C 82 % 1017,4 hPa 0,0 l/m 0,0 km/h SO 3,5 C 6,3 C 0,0 km/h
22.09.2017 05:00 6,1 C 81 % 1017,5 hPa 0,0 l/m 0,0 km/h SO 3,1 C 6,1 C 0,0 km/h
22.09.2017 06:00 5,7 C 81 % 1017,8 hPa 0,0 l/m 0,0 km/h SO 2,7 C 5,7 C 0,0 km/h
22.09.2017 07:00 5,6 C 80 % 1017,9 hPa 0,0 l/m 0,0 km/h SO 2,4 C 5,6 C 0,0 km/h
22.09.2017 08:00 9,5 C 69 % 1018,1 hPa 0,0 l/m 0,0 km/h SO 4,1 C 9,5 C 0,0 km/h
22.09.2017 09:00 16,6 C 80 % 1018,3 hPa 0,0 l/m 0,0 km/h S-SO 13,1 C 16,6 C 0,0 km/h
22.09.2017 10:00 18,6 C 68 % 1018,7 hPa 0,0 l/m 0,0 km/h SO 12,6 C 18,6 C 0,0 km/h
22.09.2017 11:00 22,4 C 58 % 1018,6 hPa 0,0 l/m 0,0 km/h W-NW 13,7 C 22,4 C 0,0 km/h
22.09.2017 12:00 24,5 C 51 % 1018,2 hPa 0,0 l/m 0,0 km/h W 13,7 C 24,5 C 0,0 km/h
22.09.2017 13:00 25,3 C 46 % 1018,0 hPa 0,0 l/m 0,0 km/h W 12,8 C 25,3 C 0,0 km/h
22.09.2017 14:00 25,9 C 44 % 1017,9 hPa 0,0 l/m 0,0 km/h NW 12,7 C 25,9 C 0,0 km/h
22.09.2017 15:00 28,1 C 38 % 1017,7 hPa 0,0 l/m 0,0 km/h W 12,4 C 28,1 C 0,0 km/h
22.09.2017 16:00 29,4 C 35 % 1017,9 hPa 0,0 l/m 0,0 km/h W-SW 12,3 C 29,4 C 0,0 km/h
22.09.2017 17:00 25,8 C 36 % 1017,8 hPa 0,0 l/m 0,0 km/h S-SW 9,6 C 25,8 C 0,0 km/h
22.09.2017 18:00 21,6 C 52 % 1017,9 hPa 0,0 l/m 0,0 km/h S 11,3 C 21,6 C 0,0 km/h
22.09.2017 19:00 15,2 C 66 % 1018,3 hPa 0,0 l/m 0,0 km/h S-SO 8,9 C 15,2 C 0,0 km/h
22.09.2017 20:00 12,9 C 74 % 1019,1 hPa 0,0 l/m 0,0 km/h SO 8,4 C 12,9 C 0,0 km/h
22.09.2017 21:00 11,6 C 78 % 1019,3 hPa 0,0 l/m 0,0 km/h O 7,9 C 11,6 C 0,0 km/h
22.09.2017 22:00 11,4 C 81 % 1019,8 hPa 0,0 l/m 0,0 km/h NO 8,3 C 11,4 C 0,0 km/h
22.09.2017 23:00 11,1 C 82 % 1020,0 hPa 0,0 l/m 0,0 km/h SO 8,1 C 11,1 C 0,0 km/h
23.09.2017 00:00 10,2 C 83 % 1019,9 hPa 0,0 l/m 0,0 km/h O-NO 7,4 C 10,2 C 0,0 km/h
23.09.2017 01:00 9,8 C 83 % 1020,2 hPa 0,0 l/m 0,0 km/h O-SO 7,1 C 9,8 C 0,0 km/h
23.09.2017 02:00 9,5 C 83 % 1020,1 hPa 0,0 l/m 0,0 km/h O-SO 6,8 C 9,5 C 0,0 km/h
23.09.2017 03:00 9,4 C 83 % 1020,2 hPa 0,0 l/m 0,0 km/h O-SO 6,7 C 9,4 C 0,0 km/h
23.09.2017 04:00 8,4 C 83 % 1020,1 hPa 0,0 l/m 0,0 km/h O-SO 5,7 C 8,4 C 0,0 km/h
23.09.2017 05:00 8,3 C 83 % 1019,9 hPa 0,0 l/m 0,0 km/h O-SO 5,6 C 8,3 C 0,0 km/h
23.09.2017 06:00 8,6 C 83 % 1020,1 hPa 0,0 l/m 0,0 km/h O-SO 5,9 C 8,6 C 0,0 km/h
23.09.2017 07:00 8,9 C 82 % 1020,0 hPa 0,0 l/m 0,0 km/h O-SO 6,0 C 8,9 C 0,0 km/h
23.09.2017 08:00 11,8 C 81 % 1020,3 hPa 0,0 l/m 0,0 km/h O-SO 8,6 C 11,8 C 0,0 km/h
23.09.2017 09:00 17,4 C 80 % 1020,2 hPa 0,0 l/m 0,0 km/h W 13,9 C 17,4 C 0,0 km/h
23.09.2017 10:00 20,4 C 65 % 1020,2 hPa 0,0 l/m 0,0 km/h N 13,6 C 20,4 C 0,0 km/h
23.09.2017 11:00 21,8 C 60 % 1019,8 hPa 0,0 l/m 0,0 km/h W-NW 13,7 C 21,8 C 0,0 km/h
23.09.2017 12:00 23,1 C 58 % 1019,1 hPa 0,0 l/m 0,0 km/h W-NW 14,4 C 23,1 C 0,0 km/h
23.09.2017 13:00 24,1 C 54 % 1018,5 hPa 0,0 l/m 0,0 km/h W-NW 14,2 C 24,1 C 0,0 km/h
23.09.2017 14:00 25,8 C 48 % 1018,0 hPa 0,0 l/m 3,2 km/h N-NO 13,9 C 25,8 C 1,8 km/h
23.09.2017 15:00 27,4 C 42 % 1017,8 hPa 0,0 l/m 0,0 km/h N-NO 13,3 C 27,4 C 0,0 km/h
23.09.2017 16:00 29,1 C 37 % 1017,2 hPa 0,0 l/m 0,0 km/h W-NW 12,9 C 29,1 C 0,0 km/h
23.09.2017 17:00 26,6 C 39 % 1017,4 hPa 0,0 l/m 0,0 km/h N 11,5 C 26,6 C 0,0 km/h
23.09.2017 18:00 19,4 C 59 % 1017,2 hPa 0,0 l/m 0,0 km/h N 11,2 C 19,4 C 0,0 km/h
23.09.2017 19:00 15,3 C 71 % 1017,4 hPa 0,0 l/m 0,0 km/h N 10,1 C 15,3 C 0,0 km/h
23.09.2017 20:00 14,3 C 78 % 1017,8 hPa 0,0 l/m 0,0 km/h N-NO 10,5 C 14,3 C 0,0 km/h
23.09.2017 21:00 14,5 C 79 % 1017,9 hPa 0,0 l/m 0,0 km/h O-NO 10,9 C 14,5 C 0,0 km/h
23.09.2017 22:00 14,1 C 81 % 1017,7 hPa 0,0 l/m 0,0 km/h N-NW 10,9 C 14,1 C 0,0 km/h
23.09.2017 23:00 14,3 C 81 % 1017,9 hPa 0,0 l/m 0,0 km/h N-NW 11,1 C 14,3 C 0,0 km/h
24.09.2017 00:00 12,6 C 82 % 1017,6 hPa 0,0 l/m 0,0 km/h N-NW 9,6 C 12,6 C 0,0 km/h
24.09.2017 01:00 12,1 C 83 % 1017,5 hPa 0,0 l/m 0,0 km/h W-NW 9,3 C 12,1 C 0,0 km/h
24.09.2017 02:00 9,4 C 83 % 1017,7 hPa 0,0 l/m 0,0 km/h W-NW 6,7 C 9,4 C 0,0 km/h
24.09.2017 03:00 9,4 C 83 % 1017,7 hPa 0,0 l/m 0,0 km/h W-NW 6,7 C 9,4 C 0,0 km/h
24.09.2017 04:00 8,4 C 83 % 1017,7 hPa 0,0 l/m 0,0 km/h N-NW 5,7 C 8,4 C 0,0 km/h
24.09.2017 05:00 8,2 C 82 % 1017,9 hPa 0,0 l/m 0,0 km/h O 5,3 C 8,2 C 0,0 km/h
24.09.2017 06:00 7,8 C 82 % 1018,3 hPa 0,0 l/m 0,0 km/h O 4,9 C 7,8 C 0,0 km/h
24.09.2017 07:00 8,5 C 81 % 1018,4 hPa 0,0 l/m 0,0 km/h O 5,4 C 8,5 C 0,0 km/h
24.09.2017 08:00 10,4 C 78 % 1018,8 hPa 0,0 l/m 0,0 km/h N-NO 6,7 C 10,4 C 0,0 km/h
24.09.2017 09:00 16,1 C 81 % 1019,1 hPa 0,0 l/m 0,0 km/h W 12,8 C 16,1 C 0,0 km/h
24.09.2017 10:00 19,6 C 68 % 1019,1 hPa 0,0 l/m 0,0 km/h N 13,5 C 19,6 C 0,0 km/h
24.09.2017 11:00 20,6 C 65 % 1019,0 hPa 0,0 l/m 0,0 km/h W 13,8 C 20,6 C 0,0 km/h
24.09.2017 12:00 22,6 C 59 % 1018,3 hPa 0,0 l/m 0,0 km/h W 14,2 C 22,6 C 0,0 km/h
24.09.2017 13:00 23,3 C 56 % 1017,9 hPa 0,0 l/m 0,0 km/h N-NW 14,0 C 23,3 C 0,0 km/h
24.09.2017 14:00 24,5 C 52 % 1017,6 hPa 0,0 l/m 0,0 km/h NW 14,0 C 24,5 C 0,0 km/h
24.09.2017 15:00 25,5 C 44 % 1017,5 hPa 0,0 l/m 7,8 km/h N 12,3 C 25,2 C 4,3 km/h
24.09.2017 16:00 28,8 C 35 % 1017,4 hPa 0,0 l/m 0,0 km/h N-NO 11,8 C 28,8 C 0,0 km/h
24.09.2017 17:00 27,9 C 33 % 1017,4 hPa 0,0 l/m 6,5 km/h N 10,1 C 27,9 C 3,6 km/h
24.09.2017 18:00 23,3 C 46 % 1017,5 hPa 0,0 l/m 0,0 km/h N-NO 11,0 C 23,3 C 0,0 km/h
24.09.2017 19:00 13,6 C 69 % 1017,8 hPa 0,0 l/m 0,0 km/h O 8,0 C 13,6 C 0,0 km/h
24.09.2017 20:00 12,9 C 76 % 1018,0 hPa 0,0 l/m 0,0 km/h O 8,8 C 12,9 C 0,0 km/h
24.09.2017 21:00 12,5 C 79 % 1018,2 hPa 0,0 l/m 0,0 km/h N-NO 9,0 C 12,5 C 0,0 km/h
24.09.2017 22:00 12,1 C 81 % 1018,2 hPa 0,0 l/m 0,0 km/h N-NO 8,9 C 12,1 C 0,0 km/h
24.09.2017 23:00 9,9 C 82 % 1018,0 hPa 0,0 l/m 0,0 km/h N-NO 7,0 C 9,9 C 0,0 km/h
Min-Datum _ 21.09.17 24.09.17 18.09.17 - 18.09.17 - 21.09.17 21.09.17 18.09.17
_ Min-Zeit 07:53 17:53 01:53 - 00:53 - 07:53 07:53 00:53
Minimum _ 3,8 C 33 % 1013,2 hPa - 0,0 km/h - 0,8 C 3,8 C 0,0 km/h
Max-Datum _ 22.09.17 18.09.17 20.09.17 19.09.17 20.09.17 - 23.09.17 22.09.17 20.09.17
_ Max-Zeit 16:53 22:53 09:53 20:53 16:53 - 12:53 16:53 16:53
Maximum _ 29,4 C 84 % 1021,0 hPa 2,1 l/m 17,5 km/h
N
- 14,4 C 29,4 C 9,7 km/h
N
Durchschnitt _ 13,9 C 72 % 1017,7 hPa #6,2 l/m 0,4 km/h O-SO 8,4 C 13,8 C 0,2 km/h
www.sexauwetter.de